Richland, Oregon
Current Conditions -  °F | °C
As of 1:53 AM on Friday 28 Nov 2014 (Local Time) from KBKE Reporting Station
Overcast Overcast  
Wind Chill: 42°   Ceiling: 7000
Heat Index: 47°   Visibility: 10mi
Dew Point: 39°   Wind: 12mph
Humidity: 74%   Direction: 120°ESE
Pressure: 29.88"   Gusts: 17mph
Location:  44.77°N, 117.17°W
Report Text: KBKE 280953Z AUTO 12010G15KT 080V240 10SM FEW044 OVC070 08/04 A2988 RMK AO2 RAB07E18 SLP115 P0000 T00830039 $
Loading
Personal Weather Stations






























Interactive Weather Map New forecast layout! Learn more

10-Day Weather Forecast

Advertisements
Track Severe Weather on mobile